Time;durP1;ratioP1;P1;durP2;ratioP2;P2;SDS_P1;SDS_P2;PMS_P1;PMS_P2;Temp;Humidity;BMP_temperature;BMP_pressure;BME280_temperature;BME280_humidity;BME280_pressure;Samples;Min_cycle;Max_cycle;Signal;HPM_P1;HPM_P2
2024/02/25 00:00:30;;;;;;;6.82;4.60;;;;;;;4.44;86.61;97112.56;5161422;23;20279;-88
2024/02/25 00:02:32;;;;;;;6.38;4.25;;;;;;;4.40;87.42;97114.47;5137617;23;20609;-87
2024/02/25 00:04:37;;;;;;;6.80;4.75;;;;;;;4.39;87.79;97115.44;5138320;23;20997;-87
2024/02/25 00:06:44;;;;;;;6.50;4.35;;;;;;;4.38;87.64;97115.53;5187593;22;20252;-87
2024/02/25 00:08:49;;;;;;;5.65;3.63;;;;;;;4.32;87.01;97116.69;5136959;23;20186;-87
2024/02/25 00:10:53;;;;;;;5.97;3.95;;;;;;;4.30;87.67;97122.84;5162263;23;20233;-87
2024/02/25 00:12:57;;;;;;;4.35;2.92;;;;;;;4.26;87.72;97124.81;5160686;23;20179;-87
2024/02/25 00:15:00;;;;;;;4.07;2.80;;;;;;;4.27;87.47;97123.06;5137700;23;20207;-87
2024/02/25 00:17:04;;;;;;;6.50;3.70;;;;;;;4.24;87.77;97129.22;5162314;23;20178;-87
2024/02/25 00:19:07;;;;;;;4.57;3.22;;;;;;;4.23;88.02;97122.41;5189808;22;20173;-87
2024/02/25 00:21:11;;;;;;;4.35;3.30;;;;;;;4.20;87.81;97132.09;5138207;23;20277;-87
2024/02/25 00:23:15;;;;;;;4.85;3.10;;;;;;;4.21;87.31;97132.00;5136774;23;20537;-87
2024/02/25 00:25:19;;;;;;;5.47;3.90;;;;;;;4.18;87.16;97133.94;5137048;23;20298;-87
2024/02/25 00:27:23;;;;;;;5.80;3.58;;;;;;;4.17;88.46;97131.44;5160837;23;20234;-87
2024/02/25 00:29:26;;;;;;;5.13;3.08;;;;;;;4.18;87.96;97133.94;5138105;23;20186;-87
2024/02/25 00:31:29;;;;;;;5.15;3.45;;;;;;;4.14;87.12;97131.63;5162875;23;20200;-87
2024/02/25 00:33:32;;;;;;;5.45;3.25;;;;;;;4.12;87.86;97128.28;5137958;23;20179;-87
2024/02/25 00:35:35;;;;;;;5.13;3.40;;;;;;;4.10;87.59;97127.56;5135508;23;20726;-87
2024/02/25 00:37:38;;;;;;;5.05;3.45;;;;;;;4.08;87.34;97134.56;5161544;23;20178;-87
2024/02/25 00:39:41;;;;;;;6.38;3.70;;;;;;;4.08;88.46;97137.13;5162751;23;20189;-87
2024/02/25 00:41:48;;;;;;;5.00;3.25;;;;;;;4.09;88.07;97138.78;5137982;23;20175;-87
2024/02/25 00:43:51;;;;;;;3.85;3.13;;;;;;;4.09;87.72;97138.78;5137612;23;20167;-87
2024/02/25 00:45:54;;;;;;;3.78;3.17;;;;;;;4.04;87.90;97130.47;5135911;23;20616;-87
2024/02/25 00:47:57;;;;;;;4.50;3.30;;;;;;;4.01;88.35;97130.66;5161874;23;20169;-90
2024/02/25 00:50:01;;;;;;;4.75;3.60;;;;;;;4.00;88.56;97139.31;5162846;23;20261;-90
2024/02/25 00:52:04;;;;;;;6.55;3.95;;;;;;;4.00;88.16;97137.59;5136074;23;20202;-90
2024/02/25 00:54:08;;;;;;;5.30;3.70;;;;;;;4.00;88.32;97129.00;5138263;23;20206;-90
2024/02/25 00:56:11;;;;;;;4.88;3.88;;;;;;;3.96;88.92;97136.09;5161864;23;20607;-90
2024/02/25 00:58:16;;;;;;;5.95;3.92;;;;;;;3.95;88.66;97123.28;5163210;23;20590;-91
2024/02/25 01:00:19;;;;;;;5.05;3.40;;;;;;;3.97;88.19;97134.31;5162626;23;20698;-91
2024/02/25 01:02:23;;;;;;;6.75;4.05;;;;;;;3.97;87.93;97135.19;5137458;23;20187;-90
2024/02/25 01:04:26;;;;;;;5.20;4.20;;;;;;;3.95;88.86;97133.59;5188919;22;20176;-91
2024/02/25 01:06:29;;;;;;;5.20;3.95;;;;;;;3.97;88.22;97134.31;5161017;23;20213;-90
2024/02/25 01:08:34;;;;;;;5.63;3.65;;;;;;;3.96;88.49;97138.66;5136864;23;20213;-90
2024/02/25 01:10:39;;;;;;;5.35;4.40;;;;;;;3.92;88.33;97132.00;5161713;23;20173;-90
2024/02/25 01:12:42;;;;;;;7.03;3.63;;;;;;;3.92;89.10;97126.03;5136366;23;20174;-91
2024/02/25 01:14:46;;;;;;;5.85;3.67;;;;;;;3.93;89.17;97130.28;5162715;23;20202;-91
2024/02/25 01:16:49;;;;;;;5.65;3.67;;;;;;;3.89;88.24;97127.06;5160680;23;20268;-91
2024/02/25 01:18:53;;;;;;;7.30;3.85;;;;;;;3.87;88.28;97123.72;5163075;23;20170;-91
2024/02/25 01:20:56;;;;;;;5.63;3.50;;;;;;;3.86;88.77;97124.66;5162456;23;20188;-91
2024/02/25 01:23:00;;;;;;;5.90;4.03;;;;;;;3.84;88.57;97126.47;5137702;23;20510;-91
2024/02/25 01:25:03;;;;;;;5.80;3.70;;;;;;;3.80;88.63;97114.69;5137542;23;20181;-91
2024/02/25 01:27:07;;;;;;;5.38;3.80;;;;;;;3.79;88.07;97120.75;5161484;23;20232;-91
2024/02/25 01:29:10;;;;;;;6.50;4.18;;;;;;;3.78;88.08;97118.28;5189483;22;20625;-91
2024/02/25 01:31:14;;;;;;;5.03;4.20;;;;;;;3.74;88.19;97112.47;5162380;23;20181;-90
2024/02/25 01:33:18;;;;;;;5.45;4.38;;;;;;;3.73;88.61;97112.56;5163190;23;20217;-90
2024/02/25 01:35:21;;;;;;;6.28;3.97;;;;;;;3.70;88.25;97102.44;5137361;23;20179;-91
2024/02/25 01:37:25;;;;;;;7.53;3.83;;;;;;;3.70;88.74;97107.59;5160409;23;20224;-91
2024/02/25 01:39:28;;;;;;;4.78;3.72;;;;;;;3.73;88.82;97115.97;5135372;23;20519;-90
2024/02/25 01:41:31;;;;;;;4.47;3.55;;;;;;;3.71;88.93;97109.22;5162713;23;20178;-90
2024/02/25 01:43:37;;;;;;;5.97;3.88;;;;;;;3.71;88.44;97105.81;5162410;23;20395;-92
2024/02/25 01:45:40;;;;;;;3.92;3.25;;;;;;;3.69;89.19;97102.50;5136803;23;20206;-90
2024/02/25 01:47:45;;;;;;;6.57;3.80;;;;;;;3.69;89.21;97107.66;5188324;22;20173;-91
2024/02/25 01:49:48;;;;;;;5.53;3.53;;;;;;;3.67;89.14;97105.19;5161962;23;20237;-90
2024/02/25 01:51:51;;;;;;;4.38;3.25;;;;;;;3.68;89.07;97106.00;5161057;23;20177;-91
2024/02/25 01:53:54;;;;;;;5.03;3.35;;;;;;;3.65;89.33;97099.25;5161548;23;20174;-90
2024/02/25 01:55:58;;;;;;;6.55;3.70;;;;;;;3.64;88.48;97110.50;5136228;23;20785;-90
2024/02/25 01:58:03;;;;;;;4.63;3.30;;;;;;;3.64;89.09;97112.22;5162440;23;20173;-90
2024/02/25 02:00:08;;;;;;;3.80;2.92;;;;;;;3.61;88.34;97112.41;5162249;23;20181;-90
2024/02/25 02:02:14;;;;;;;6.00;3.78;;;;;;;3.58;88.12;97105.69;5135835;23;20174;-90
2024/02/25 02:04:19;;;;;;;4.65;3.20;;;;;;;3.57;88.81;97100.63;5162948;23;20165;-90
2024/02/25 02:06:23;;;;;;;4.50;3.30;;;;;;;3.57;88.89;97105.78;5161081;23;20205;-90
2024/02/25 02:08:27;;;;;;;4.75;3.63;;;;;;;3.54;87.90;97099.03;5162167;23;20184;-90
2024/02/25 02:10:31;;;;;;;4.68;3.20;;;;;;;3.51;88.90;97094.06;5188721;22;20176;-91
2024/02/25 02:12:40;;;;;;;4.90;3.30;;;;;;;3.51;88.91;97090.66;5136790;23;20178;-91
2024/02/25 02:14:44;;;;;;;4.68;3.05;;;;;;;3.47;88.86;97082.28;5185168;22;20167;-91
2024/02/25 02:16:50;;;;;;;4.65;3.20;;;;;;;3.45;88.29;97083.28;5161509;23;20215;-90
2024/02/25 02:18:54;;;;;;;6.18;3.58;;;;;;;3.47;89.16;97087.44;5162935;22;20174;-91
2024/02/25 02:20:59;;;;;;;6.15;3.40;;;;;;;3.42;89.41;97089.44;5137057;23;20614;-90
2024/02/25 02:23:03;;;;;;;4.65;3.47;;;;;;;3.41;89.76;97079.22;5188042;22;20259;-90
2024/02/25 02:25:09;;;;;;;5.15;3.88;;;;;;;3.40;89.25;97086.13;5136524;23;20195;-90
2024/02/25 02:27:14;;;;;;;6.45;3.50;;;;;;;3.43;89.36;97077.41;5161086;22;20225;-90
2024/02/25 02:29:18;;;;;;;6.97;3.08;;;;;;;3.40;88.32;97069.84;5136006;23;20213;-90
2024/02/25 02:31:22;;;;;;;4.00;3.08;;;;;;;3.37;88.43;97063.09;5161894;23;20173;-90
2024/02/25 02:33:26;;;;;;;5.05;4.07;;;;;;;3.37;88.37;97064.88;5137710;23;20564;-91
2024/02/25 02:35:29;;;;;;;4.50;3.05;;;;;;;3.35;89.08;97062.38;5135705;23;20630;-91
2024/02/25 02:37:34;;;;;;;4.40;3.00;;;;;;;3.36;89.05;97066.59;5161711;23;20181;-90
2024/02/25 02:39:38;;;;;;;4.25;3.22;;;;;;;3.37;89.58;97072.59;5135728;23;20178;-91
2024/02/25 02:41:43;;;;;;;4.25;3.00;;;;;;;3.39;89.03;97065.59;5161479;23;20170;-91
2024/02/25 02:43:46;;;;;;;4.75;3.30;;;;;;;3.39;88.92;97078.47;5136369;23;20202;-91
2024/02/25 02:45:50;;;;;;;6.90;3.00;;;;;;;3.36;88.79;97068.34;5187681;22;20208;-90
2024/02/25 02:47:55;;;;;;;4.10;2.70;;;;;;;3.28;88.21;97063.63;5162427;22;20182;-91
2024/02/25 02:49:59;;;;;;;3.75;2.80;;;;;;;3.28;88.67;97061.06;5162817;23;20173;-91
2024/02/25 02:52:02;;;;;;;4.57;3.10;;;;;;;3.26;88.76;97061.22;5162785;23;20633;-90
2024/02/25 02:54:07;;;;;;;8.45;2.40;;;;;;;3.26;88.61;97064.63;5137909;23;20610;-91
2024/02/25 02:56:10;;;;;;;3.72;3.00;;;;;;;3.24;88.27;97063.88;5136422;23;20680;-91
2024/02/25 02:58:14;;;;;;;4.22;2.90;;;;;;;3.22;88.15;97054.56;5137723;23;20570;-92
2024/02/25 03:00:18;;;;;;;4.20;2.78;;;;;;;3.19;88.94;97057.31;5138038;23;20174;-90
2024/02/25 03:02:22;;;;;;;3.63;2.80;;;;;;;3.15;88.91;97050.69;5190156;22;20491;-90
2024/02/25 03:04:26;;;;;;;3.47;2.90;;;;;;;3.16;89.16;97048.03;5161060;23;20715;-91
2024/02/25 03:06:30;;;;;;;4.57;3.10;;;;;;;3.12;88.82;97049.13;5135555;23;20556;-91
2024/02/25 03:08:35;;;;;;;4.75;2.85;;;;;;;3.13;89.22;97055.94;5163814;22;20639;-90
2024/02/25 03:10:40;;;;;;;5.10;3.05;;;;;;;3.13;89.29;97049.94;5190754;22;20246;-90
2024/02/25 03:12:44;;;;;;;4.72;2.88;;;;;;;3.13;89.84;97044.78;5163192;23;20539;-90
2024/02/25 03:14:47;;;;;;;4.20;2.70;;;;;;;3.14;89.60;97046.47;5162648;23;20269;-89
2024/02/25 03:16:51;;;;;;;3.33;2.65;;;;;;;3.18;89.60;97040.22;5161694;23;20173;-90
2024/02/25 03:18:55;;;;;;;3.72;2.90;;;;;;;3.16;89.46;97049.75;5189228;22;20183;-90
2024/02/25 03:21:03;;;;;;;7.07;3.70;;;;;;;3.15;89.32;97046.38;5139382;22;20179;-90
2024/02/25 03:23:07;;;;;;;4.57;3.15;;;;;;;3.19;89.72;97047.03;5162900;23;20254;-90
2024/02/25 03:25:12;;;;;;;3.92;3.00;;;;;;;3.15;88.71;97043.78;5161297;23;20185;-91
2024/02/25 03:27:17;;;;;;;4.03;2.70;;;;;;;3.12;89.05;97040.56;5135422;23;20206;-90
2024/02/25 03:29:20;;;;;;;3.90;2.65;;;;;;;3.09;88.33;97038.16;5161254;23;20178;-90
2024/02/25 03:31:24;;;;;;;4.53;2.80;;;;;;;3.11;89.09;97042.31;5163711;23;20195;-90
2024/02/25 03:33:27;;;;;;;2.97;2.30;;;;;;;3.07;88.73;97045.97;5190263;22;20747;-90
2024/02/25 03:35:32;;;;;;;3.40;2.55;;;;;;;3.04;88.91;97043.56;5162936;23;20247;-90
2024/02/25 03:37:36;;;;;;;3.60;2.70;;;;;;;3.07;89.36;97047.72;5137581;23;20269;-90
2024/02/25 03:39:39;;;;;;;4.20;2.90;;;;;;;3.03;88.98;97046.22;5163183;23;20181;-90
2024/02/25 03:41:45;;;;;;;4.15;2.50;;;;;;;3.02;88.98;97049.72;5189823;22;20173;-90
2024/02/25 03:43:50;;;;;;;5.57;2.80;;;;;;;3.00;88.97;97054.13;5161818;23;20181;-90
2024/02/25 03:45:54;;;;;;;3.83;2.78;;;;;;;2.98;89.94;97045.66;5137684;23;20178;-90
2024/02/25 03:47:58;;;;;;;4.22;2.90;;;;;;;2.97;88.99;97049.16;5138638;23;20735;-90
2024/02/25 03:50:01;;;;;;;3.60;2.60;;;;;;;2.93;88.44;97045.91;5191891;22;20176;-90
2024/02/25 03:52:05;;;;;;;4.35;2.70;;;;;;;2.92;88.63;97048.59;5191132;22;20230;-90
2024/02/25 03:54:09;;;;;;;4.85;2.83;;;;;;;2.90;88.87;97032.38;5140594;23;20174;-90
2024/02/25 03:56:13;;;;;;;4.05;2.70;;;;;;;2.88;89.31;97039.34;5164919;23;20281;-90
2024/02/25 03:58:16;;;;;;;4.70;2.50;;;;;;;2.89;89.02;97041.03;5139826;23;20174;-91
2024/02/25 04:00:22;;;;;;;3.53;2.60;;;;;;;2.84;88.69;97036.13;5163645;23;20178;-90
2024/02/25 04:02:25;;;;;;;3.53;2.70;;;;;;;2.80;88.11;97031.25;5139335;23;20688;-90
2024/02/25 04:04:29;;;;;;;3.90;2.70;;;;;;;2.75;88.12;97017.78;5165514;23;20582;-90
2024/02/25 04:06:33;;;;;;;5.15;2.90;;;;;;;2.75;88.30;97017.78;5138067;22;20723;-90
2024/02/25 04:08:37;;;;;;;4.00;2.67;;;;;;;2.73;88.14;97014.47;5138327;23;20249;-91
2024/02/25 04:10:40;;;;;;;5.55;3.30;;;;;;;2.71;88.92;97012.91;5164475;23;20177;-91
2024/02/25 04:12:44;;;;;;;6.80;2.75;;;;;;;2.74;88.86;97023.00;5164426;22;20186;-91
2024/02/25 04:14:48;;;;;;;4.10;2.92;;;;;;;2.76;89.36;97024.59;5138896;22;20677;-91
2024/02/25 04:16:54;;;;;;;4.85;2.70;;;;;;;2.77;89.02;97017.69;5163359;23;20264;-91
2024/02/25 04:18:58;;;;;;;3.40;2.60;;;;;;;2.75;89.44;97019.53;5165111;22;20191;-91
2024/02/25 04:21:02;;;;;;;4.60;2.90;;;;;;;2.75;89.42;97020.34;5164924;23;20178;-91
2024/02/25 04:23:09;;;;;;;4.18;2.92;;;;;;;2.75;89.63;97012.63;5138870;22;20204;-91
2024/02/25 04:25:11;;;;;;;3.72;2.42;;;;;;;2.73;88.74;97011.88;5165275;23;20174;-91
2024/02/25 04:27:15;;;;;;;6.15;3.25;;;;;;;2.72;88.82;97012.81;5139057;23;20634;-92
2024/02/25 04:29:19;;;;;;;4.30;3.15;;;;;;;2.72;89.23;97011.97;5163710;23;20216;-91
2024/02/25 04:31:23;;;;;;;4.80;2.97;;;;;;;2.71;89.71;97016.31;5164123;23;20177;-90
2024/02/25 04:33:28;;;;;;;5.35;3.40;;;;;;;2.71;88.75;97012.91;5162834;23;20802;-91
2024/02/25 04:35:31;;;;;;;5.75;3.10;;;;;;;2.75;89.68;97016.94;5138044;23;20178;-91
2024/02/25 04:37:38;;;;;;;4.93;3.10;;;;;;;2.78;89.82;97020.19;5189910;22;20627;-91
2024/02/25 04:39:42;;;;;;;4.25;2.70;;;;;;;2.83;89.52;97015.63;5137384;23;20642;-90
2024/02/25 04:41:46;;;;;;;3.10;2.60;;;;;;;2.83;88.74;97013.88;5163271;23;20174;-91
2024/02/25 04:43:49;;;;;;;3.58;2.53;;;;;;;2.81;88.63;97017.44;5138860;23;20181;-90
2024/02/25 04:45:52;;;;;;;4.35;2.85;;;;;;;2.78;88.26;97017.59;5136909;23;20184;-90
2024/02/25 04:47:56;;;;;;;3.50;2.65;;;;;;;2.82;88.76;97013.94;5138047;23;20198;-90
2024/02/25 04:50:01;;;;;;;4.18;2.50;;;;;;;2.81;88.89;97012.28;5135563;23;20205;-90
2024/02/25 04:52:04;;;;;;;4.70;2.75;;;;;;;2.79;88.44;97020.09;5137829;23;20197;-91
2024/02/25 04:54:09;;;;;;;4.93;2.53;;;;;;;2.79;88.15;97014.94;5190787;22;20183;-91
2024/02/25 04:56:13;;;;;;;3.92;2.45;;;;;;;2.75;88.56;97015.19;5161665;23;20173;-91
2024/02/25 04:58:16;;;;;;;4.45;2.60;;;;;;;2.72;88.39;97017.13;5163718;23;20273;-90
2024/02/25 05:00:22;;;;;;;5.28;2.38;;;;;;;2.72;88.66;97025.69;5137460;23;20201;-90
2024/02/25 05:02:26;;;;;;;4.00;2.63;;;;;;;2.72;88.79;97017.97;5191250;22;20639;-90
2024/02/25 05:04:28;;;;;;;4.00;2.97;;;;;;;2.72;89.36;97023.13;5163380;23;20177;-91
2024/02/25 05:06:32;;;;;;;4.28;2.40;;;;;;;2.71;89.06;97020.63;5137357;23;20202;-89
2024/02/25 05:08:36;;;;;;;7.38;2.30;;;;;;;2.69;88.92;97017.28;5138119;23;20201;-90
2024/02/25 05:10:40;;;;;;;3.47;2.30;;;;;;;2.67;89.25;97025.09;5161966;23;20744;-90
2024/02/25 05:12:43;;;;;;;3.33;2.50;;;;;;;2.66;89.27;97022.59;5162177;23;20178;-90
2024/02/25 05:14:47;;;;;;;4.05;2.78;;;;;;;2.67;89.28;97026.84;5136845;23;20212;-90
2024/02/25 05:16:51;;;;;;;4.70;2.80;;;;;;;2.69;89.40;97025.84;5161344;23;20177;-90
2024/02/25 05:18:55;;;;;;;4.50;2.97;;;;;;;2.68;89.50;97026.75;5138086;23;20209;-90
2024/02/25 05:20:58;;;;;;;5.13;3.00;;;;;;;2.67;89.55;97032.81;5135960;23;20174;-89
2024/02/25 05:23:04;;;;;;;2.33;2.00;;;;;;;2.64;89.01;97030.41;5137412;23;20585;-91
2024/02/25 05:25:08;;;;;;;4.93;2.42;;;;;;;2.62;89.37;97027.09;5138554;23;20261;-90
2024/02/25 05:27:11;;;;;;;3.15;2.50;;;;;;;2.63;89.25;97028.75;5162618;23;20626;-91
2024/02/25 05:29:15;;;;;;;3.75;2.35;;;;;;;2.66;89.05;97027.75;5163398;23;20689;-91
2024/02/25 05:31:18;;;;;;;4.38;2.50;;;;;;;2.65;88.90;97031.25;5136869;23;20264;-91
2024/02/25 05:33:22;;;;;;;4.25;3.00;;;;;;;2.68;88.84;97031.09;5190982;22;20256;-90
2024/02/25 05:35:26;;;;;;;4.07;2.60;;;;;;;2.62;88.56;97027.09;5162822;23;20173;-90
2024/02/25 05:37:29;;;;;;;4.15;2.40;;;;;;;2.58;88.67;97017.88;5161994;23;20207;-90
2024/02/25 05:39:34;;;;;;;3.67;2.60;;;;;;;2.59;88.43;97021.28;5160620;23;20233;-90
2024/02/25 05:41:37;;;;;;;3.20;2.75;;;;;;;2.56;88.71;97030.00;5189229;22;20509;-90
2024/02/25 05:43:41;;;;;;;4.18;2.80;;;;;;;2.60;88.99;97018.63;5138271;23;20213;-91
2024/02/25 05:45:44;;;;;;;3.38;2.40;;;;;;;2.58;89.02;97025.59;5162732;23;20231;-90
2024/02/25 05:47:47;;;;;;;4.78;2.75;;;;;;;2.56;89.58;97024.84;5137259;23;20642;-91
2024/02/25 05:49:50;;;;;;;4.28;2.60;;;;;;;2.58;89.50;97023.00;5134799;23;20198;-91
2024/02/25 05:51:54;;;;;;;4.97;3.60;;;;;;;2.59;89.72;97032.41;5162481;23;20204;-91
2024/02/25 05:53:57;;;;;;;5.88;4.25;;;;;;;2.58;89.34;97028.16;5163967;23;20209;-90
2024/02/25 05:56:02;;;;;;;4.57;3.30;;;;;;;2.57;89.24;97030.81;5189215;22;20168;-91
2024/02/25 05:58:05;;;;;;;5.05;3.00;;;;;;;2.52;88.56;97031.06;5163225;23;20184;-91
2024/02/25 06:00:10;;;;;;;3.90;2.60;;;;;;;2.52;88.22;97025.91;5163530;23;20575;-91
2024/02/25 06:02:14;;;;;;;3.45;2.70;;;;;;;2.51;88.08;97019.13;5162908;23;20641;-90
2024/02/25 06:04:19;;;;;;;3.58;2.70;;;;;;;2.50;88.79;97024.34;5136896;23;20192;-90
2024/02/25 06:06:22;;;;;;;4.40;2.60;;;;;;;2.51;89.08;97028.56;5187729;22;20196;-90
2024/02/25 06:08:26;;;;;;;3.90;2.60;;;;;;;2.51;89.09;97026.00;5162659;23;20177;-91
2024/02/25 06:10:29;;;;;;;3.45;2.40;;;;;;;2.54;89.33;97025.84;5138232;23;20221;-91
2024/02/25 06:12:35;;;;;;;6.13;2.60;;;;;;;2.58;89.20;97015.28;5162002;23;20180;-91
2024/02/25 06:14:39;;;;;;;3.45;2.60;;;;;;;2.59;88.98;97029.00;5161451;23;20181;-91
2024/02/25 06:16:43;;;;;;;4.80;2.40;;;;;;;2.55;88.98;97025.75;5136472;23;20777;-90
2024/02/25 06:18:47;;;;;;;5.57;3.20;;;;;;;2.54;88.41;97030.97;5189818;22;20177;-90
2024/02/25 06:20:52;;;;;;;3.58;2.33;;;;;;;2.59;89.06;97031.59;5137206;23;20548;-90
2024/02/25 06:22:56;;;;;;;4.93;2.90;;;;;;;2.61;88.85;97027.19;5162461;23;20184;-91
2024/02/25 06:24:59;;;;;;;4.45;3.00;;;;;;;2.61;88.89;97035.72;5136104;23;20246;-90
2024/02/25 06:27:02;;;;;;;4.95;2.90;;;;;;;2.61;89.61;97029.75;5160435;23;20685;-90
2024/02/25 06:29:07;;;;;;;4.45;3.17;;;;;;;2.65;89.39;97034.66;5136119;23;20280;-90
2024/02/25 06:31:11;;;;;;;5.25;3.20;;;;;;;2.67;88.95;97034.56;5162801;23;20173;-90
2024/02/25 06:33:15;;;;;;;3.88;3.10;;;;;;;2.70;89.41;97035.22;5161247;23;20576;-90
2024/02/25 06:35:18;;;;;;;4.30;2.45;;;;;;;2.83;89.43;97043.94;5188603;22;20613;-89
2024/02/25 06:37:22;;;;;;;3.55;2.72;;;;;;;3.08;89.73;97045.06;5136546;23;20212;-89
2024/02/25 06:39:25;;;;;;;5.10;3.20;;;;;;;3.32;89.01;97051.41;5162768;23;20300;-90
2024/02/25 06:41:29;;;;;;;7.60;3.72;;;;;;;3.55;88.92;97056.06;5159428;23;20195;-89
2024/02/25 06:43:32;;;;;;;3.75;2.83;;;;;;;3.80;88.87;97064.88;5136373;23;20216;-89
2024/02/25 06:45:37;;;;;;;3.53;2.60;;;;;;;4.04;88.26;97068.59;5139591;23;20236;-90
2024/02/25 06:47:41;;;;;;;5.15;2.70;;;;;;;4.28;87.54;97073.97;5140599;23;20697;-91
2024/02/25 06:49:43;;;;;;;4.18;2.70;;;;;;;4.51;87.12;97075.97;5139586;23;20678;-90
2024/02/25 06:51:47;;;;;;;3.53;2.75;;;;;;;4.71;86.04;97078.16;5139364;23;20184;-90
2024/02/25 06:53:50;;;;;;;4.28;2.75;;;;;;;4.90;87.02;97081.25;5163936;23;20185;-90
2024/02/25 06:55:55;;;;;;;2.95;2.22;;;;;;;5.10;86.05;97080.81;5165067;23;20633;-90
2024/02/25 06:57:58;;;;;;;7.90;2.92;;;;;;;5.30;86.47;97094.16;5140058;23;20174;-90
2024/02/25 07:00:05;;;;;;;3.50;2.60;;;;;;;5.50;85.85;97091.13;5139930;23;20194;-90
2024/02/25 07:02:10;;;;;;;3.80;2.45;;;;;;;5.74;85.74;97098.16;5190799;22;20819;-90
2024/02/25 07:04:15;;;;;;;3.80;2.78;;;;;;;5.94;84.82;97100.25;5140504;22;20228;-90
2024/02/25 07:06:18;;;;;;;4.78;3.15;;;;;;;6.12;85.05;97105.88;5138938;23;20259;-90
2024/02/25 07:08:22;;;;;;;3.55;2.78;;;;;;;6.27;83.30;97099.69;5164845;23;20186;-90
2024/02/25 07:10:25;;;;;;;4.20;3.10;;;;;;;6.43;83.65;97102.88;5163599;23;20243;-90
2024/02/25 07:12:29;;;;;;;4.72;3.47;;;;;;;6.56;83.61;97107.09;5165090;23;20182;-90
2024/02/25 07:14:32;;;;;;;5.05;3.17;;;;;;;6.67;82.81;97101.19;5138368;23;20201;-91
2024/02/25 07:16:34;;;;;;;5.78;3.05;;;;;;;6.76;82.26;97100.56;5163983;23;20175;-87
2024/02/25 07:18:39;;;;;;;6.03;3.10;;;;;;;6.97;82.78;97104.25;5139847;23;20495;-90
2024/02/25 07:20:43;;;;;;;5.07;3.00;;;;;;;7.18;83.88;97106.97;5163307;23;20995;-90
2024/02/25 07:22:47;;;;;;;5.07;2.70;;;;;;;7.36;82.38;97116.06;5164409;23;20213;-90
2024/02/25 07:24:50;;;;;;;4.10;2.80;;;;;;;7.59;82.78;97107.44;5163110;23;20568;-90
2024/02/25 07:26:54;;;;;;;4.07;2.85;;;;;;;7.64;81.66;97108.78;5190408;22;20183;-89
2024/02/25 07:28:58;;;;;;;6.25;4.40;;;;;;;7.53;80.61;97100.94;5163718;23;20188;-90
2024/02/25 07:31:02;;;;;;;7.68;5.28;;;;;;;7.53;81.79;97113.06;5164878;23;20225;-89
2024/02/25 07:33:06;;;;;;;6.65;6.05;;;;;;;7.52;81.48;97112.25;5139056;23;20175;-90
2024/02/25 07:35:11;;;;;;;6.57;5.68;;;;;;;7.54;82.94;97105.19;5164898;23;20252;-90
2024/02/25 07:37:14;;;;;;;5.80;4.20;;;;;;;7.65;83.78;97110.44;5139216;23;20565;-90
2024/02/25 07:39:18;;;;;;;7.97;3.95;;;;;;;7.63;81.39;97109.72;5139027;23;20618;-89
2024/02/25 07:41:21;;;;;;;6.10;4.00;;;;;;;7.65;80.83;97104.41;5139321;23;20563;-90
2024/02/25 07:43:24;;;;;;;8.93;6.25;;;;;;;7.85;82.20;97115.00;5164420;23;20179;-90
2024/02/25 07:45:27;;;;;;;8.63;5.22;;;;;;;8.02;82.28;97119.78;5138633;23;20183;-90
2024/02/25 07:47:31;;;;;;;6.25;4.07;;;;;;;7.93;82.69;97107.47;5164897;23;20180;-90
2024/02/25 07:49:34;;;;;;;8.32;5.40;;;;;;;7.78;84.56;97106.00;5140342;23;20202;-90
2024/02/25 07:51:39;;;;;;;7.50;4.60;;;;;;;7.64;83.46;97108.78;5163474;23;20174;-90
2024/02/25 07:53:42;;;;;;;8.23;5.90;;;;;;;7.52;84.06;97104.47;5162993;23;20637;-90
2024/02/25 07:55:46;;;;;;;9.80;4.50;;;;;;;7.42;84.04;97117.41;5160823;23;20181;-89
2024/02/25 07:57:50;;;;;;;6.82;4.75;;;;;;;7.33;85.19;97102.50;5162730;23;20177;-89
2024/02/25 07:59:54;;;;;;;7.32;4.13;;;;;;;7.30;86.24;97108.72;5162663;23;20735;-89
2024/02/25 08:01:57;;;;;;;6.30;4.90;;;;;;;7.25;86.41;97103.03;5137378;23;20175;-90
2024/02/25 08:04:00;;;;;;;6.28;4.90;;;;;;;7.21;86.65;97108.53;5136001;23;20240;-90
2024/02/25 08:06:04;;;;;;;6.78;4.28;;;;;;;7.16;87.75;97098.50;5189075;22;20210;-89
2024/02/25 08:08:09;;;;;;;5.78;4.15;;;;;;;7.14;87.51;97105.56;5163257;23;20180;-90
2024/02/25 08:10:17;;;;;;;6.68;4.28;;;;;;;7.15;87.81;97104.59;5137761;23;20202;-90
2024/02/25 08:12:20;;;;;;;8.52;5.70;;;;;;;7.13;87.97;97101.31;5163621;23;20611;-90
2024/02/25 08:14:28;;;;;;;6.65;5.05;;;;;;;7.15;88.29;97101.19;5138415;23;20176;-90
2024/02/25 08:16:32;;;;;;;10.80;5.00;;;;;;;7.18;89.63;97101.78;5162776;23;20173;-90
2024/02/25 08:18:36;;;;;;;10.15;7.18;;;;;;;7.24;88.98;97101.38;5138161;23;20212;-90
2024/02/25 08:20:40;;;;;;;10.45;8.15;;;;;;;7.30;87.90;97103.53;5137745;23;20178;-90
2024/02/25 08:22:43;;;;;;;6.88;5.05;;;;;;;7.36;89.69;97108.28;5163386;23;20184;-90
2024/02/25 08:24:47;;;;;;;8.90;6.47;;;;;;;7.40;89.51;97120.09;5189311;22;20173;-90
2024/02/25 08:26:51;;;;;;;9.80;6.85;;;;;;;7.49;89.05;97109.06;5137373;23;20185;-89
2024/02/25 08:28:54;;;;;;;12.27;9.25;;;;;;;7.54;89.92;97106.97;5160843;23;20188;-87
2024/02/25 08:30:58;;;;;;;13.73;9.07;;;;;;;7.59;88.35;97110.03;5162558;23;20601;-90
2024/02/25 08:33:01;;;;;;;12.70;10.45;;;;;;;7.66;89.55;97106.88;5137873;23;20220;-91
2024/02/25 08:35:07;;;;;;;14.80;9.43;;;;;;;7.67;88.98;97112.94;5139039;23;20170;-92
2024/02/25 08:37:10;;;;;;;18.35;11.85;;;;;;;7.67;88.13;97103.38;5137093;23;20791;-91
2024/02/25 08:39:15;;;;;;;15.43;12.73;;;;;;;7.69;87.38;97111.84;5164660;23;20230;-91
2024/02/25 08:41:21;;;;;;;17.80;11.48;;;;;;;7.70;86.92;97105.75;5162135;23;20222;-91
2024/02/25 08:43:25;;;;;;;18.00;11.25;;;;;;;7.73;85.86;97109.88;5138318;23;20174;-90
2024/02/25 08:45:27;;;;;;;6.00;4.13;;;;;;;7.76;85.16;97112.25;5138077;23;20634;-90
2024/02/25 08:47:30;;;;;;;4.70;3.80;;;;;;;7.89;84.50;97110.41;5166349;23;20180;-91
2024/02/25 08:49:34;;;;;;;5.90;3.75;;;;;;;8.03;84.24;97117.06;5168205;23;20637;-90
2024/02/25 08:51:37;;;;;;;5.10;2.80;;;;;;;8.19;83.16;97115.00;5190834;22;20278;-91
2024/02/25 08:53:41;;;;;;;2.92;2.10;;;;;;;8.36;82.18;97118.94;5137249;23;20201;-90
2024/02/25 08:55:44;;;;;;;3.90;2.38;;;;;;;8.48;81.56;97118.88;5189286;22;20179;-90
2024/02/25 08:57:49;;;;;;;6.15;3.67;;;;;;;8.54;81.98;97118.41;5163210;23;20177;-90
2024/02/25 08:59:52;;;;;;;13.82;9.88;;;;;;;8.55;83.91;97117.44;5162883;23;20197;-90
2024/02/25 09:01:56;;;;;;;11.20;8.32;;;;;;;8.58;82.84;97118.03;5138334;23;20205;-89
2024/02/25 09:04:00;;;;;;;8.85;6.20;;;;;;;8.62;83.69;97113.44;5138769;23;20293;-90
2024/02/25 09:06:03;;;;;;;3.63;2.40;;;;;;;8.59;81.00;97116.28;5161784;23;20271;-91
2024/02/25 09:08:07;;;;;;;2.17;1.70;;;;;;;8.56;79.85;97111.31;5162679;23;20638;-89
2024/02/25 09:10:13;;;;;;;2.78;1.85;;;;;;;8.57;80.42;97123.38;5138050;23;20202;-90
2024/02/25 09:12:16;;;;;;;3.23;1.53;;;;;;;8.54;79.29;97108.84;5138604;23;20169;-92
2024/02/25 09:14:21;;;;;;;3.65;2.00;;;;;;;8.54;80.56;97111.44;5160904;23;20912;-90
2024/02/25 09:16:25;;;;;;;2.85;1.55;;;;;;;8.58;79.39;97101.63;5135805;23;20385;-91
2024/02/25 09:18:28;;;;;;;3.22;1.50;;;;;;;8.65;78.80;97103.63;5136644;23;20189;-90
2024/02/25 09:20:33;;;;;;;2.60;1.60;;;;;;;8.71;79.59;97097.97;5140007;23;20178;-91
2024/02/25 09:22:37;;;;;;;2.92;1.63;;;;;;;8.77;76.65;97086.28;5141045;23;20212;-90
2024/02/25 09:24:40;;;;;;;2.22;1.70;;;;;;;8.84;76.72;97095.25;5141247;23;20638;-91
2024/02/25 09:26:45;;;;;;;2.75;1.70;;;;;;;8.81;77.00;97090.28;5169073;23;20173;-90
2024/02/25 09:28:49;;;;;;;2.30;1.50;;;;;;;8.85;77.13;97089.13;5147399;23;20204;-89
2024/02/25 09:30:53;;;;;;;3.67;1.85;;;;;;;8.93;77.69;97096.19;5173711;23;20610;-90
2024/02/25 09:32:57;;;;;;;2.60;1.50;;;;;;;9.03;76.72;97091.91;5167454;23;20186;-89
2024/02/25 09:35:00;;;;;;;2.65;1.90;;;;;;;9.14;76.24;97084.13;5140996;23;20212;-89
2024/02/25 09:37:03;;;;;;;2.58;1.95;;;;;;;9.21;76.22;97090.47;5139910;23;20178;-88
2024/02/25 09:39:06;;;;;;;7.20;3.40;;;;;;;9.19;75.34;97087.19;5140876;23;20170;-89
2024/02/25 09:41:10;;;;;;;5.28;3.42;;;;;;;9.22;75.06;97079.13;5140819;23;20264;-90
2024/02/25 09:43:14;;;;;;;2.72;1.70;;;;;;;9.32;75.89;97074.88;5165516;23;20564;-91
2024/02/25 09:45:21;;;;;;;4.82;1.98;;;;;;;9.38;75.76;97083.00;5140774;23;20181;-89
2024/02/25 09:47:25;;;;;;;2.78;1.75;;;;;;;9.41;76.10;97076.72;5140732;23;20664;-90
2024/02/25 09:49:29;;;;;;;2.83;1.75;;;;;;;9.47;76.65;97078.81;5141020;23;20277;-90